createdAt,value
2017-03-17T00:00:17.273Z,6.6
2017-03-17T00:00:57.874Z,6.6
2017-03-17T00:01:38.627Z,6.57
2017-03-17T00:02:19.334Z,6.59
2017-03-17T00:03:00.088Z,6.57
2017-03-17T00:03:40.843Z,6.63
2017-03-17T00:04:21.596Z,6.62
2017-03-17T00:05:02.358Z,6.62
2017-03-17T00:05:43.111Z,6.62
2017-03-17T00:06:23.864Z,6.54
2017-03-17T00:07:04.619Z,6.52
2017-03-17T00:07:45.376Z,6.46
2017-03-17T00:08:26.131Z,6.62
2017-03-17T00:09:06.883Z,6.59
2017-03-17T00:09:47.654Z,6.62
2017-03-17T00:10:28.398Z,6.62
2017-03-17T00:11:09.157Z,6.54
2017-03-17T00:11:49.915Z,6.63
2017-03-17T00:12:30.505Z,6.66
2017-03-17T00:13:11.267Z,6.72
2017-03-17T00:13:52.028Z,6.59
2017-03-17T00:14:32.732Z,6.74
2017-03-17T00:15:13.301Z,6.59
2017-03-17T00:15:54.054Z,6.72
2017-03-17T00:16:34.747Z,6.6
2017-03-17T00:17:15.437Z,6.69
2017-03-17T00:17:56.014Z,6.67
2017-03-17T00:18:36.774Z,6.62
2017-03-17T00:19:17.581Z,6.69
2017-03-17T00:19:58.448Z,6.74
2017-03-17T00:20:39.240Z,6.84
2017-03-17T00:21:20.165Z,6.75
2017-03-17T00:22:00.860Z,6.78
2017-03-17T00:22:41.696Z,6.79
2017-03-17T00:23:22.570Z,6.85
2017-03-17T00:24:03.248Z,6.84
2017-03-17T00:24:43.945Z,6.82
2017-03-17T00:25:24.534Z,6.92
2017-03-17T00:26:06.275Z,6.85
2017-03-17T00:26:46.946Z,6.85
2017-03-17T00:27:27.645Z,6.99
2017-03-17T00:28:08.348Z,7.03
2017-03-17T00:28:48.981Z,6.96
2017-03-17T00:29:29.591Z,7.03
2017-03-17T00:30:10.278Z,7.14
2017-03-17T00:30:50.861Z,7.1
2017-03-17T00:31:31.445Z,7.11
2017-03-17T00:32:12.081Z,7.17
2017-03-17T00:32:52.764Z,7.2
2017-03-17T00:33:33.472Z,7.24
2017-03-17T00:34:14.095Z,7.2
2017-03-17T00:34:54.721Z,7.15
2017-03-17T00:35:35.389Z,7.18
2017-03-17T00:36:15.981Z,7.21
2017-03-17T00:36:56.544Z,7.17
2017-03-17T00:37:37.208Z,7.2
2017-03-17T00:38:17.871Z,7.25
2017-03-17T00:38:58.513Z,7.25
2017-03-17T00:39:39.167Z,7.25
2017-03-17T00:40:19.817Z,7.31
2017-03-17T00:41:00.472Z,7.33
2017-03-17T00:41:41.131Z,7.32
2017-03-17T00:42:21.779Z,7.33
2017-03-17T00:43:02.407Z,7.38
2017-03-17T00:43:42.982Z,7.35
2017-03-17T00:44:23.632Z,7.4
2017-03-17T00:45:04.265Z,7.42
2017-03-17T00:45:44.832Z,7.47
2017-03-17T00:46:25.485Z,7.5
2017-03-17T00:47:06.115Z,7.48
2017-03-17T00:47:46.783Z,7.61
2017-03-17T00:48:27.428Z,7.56
2017-03-17T00:49:08.078Z,7.73
2017-03-17T00:49:48.741Z,7.77
2017-03-17T00:50:29.394Z,7.73
2017-03-17T00:51:10.081Z,7.77
2017-03-17T00:51:50.688Z,7.79
2017-03-17T00:52:31.354Z,7.69
2017-03-17T00:53:11.996Z,7.72
2017-03-17T00:53:52.649Z,7.77
2017-03-17T00:54:33.319Z,7.73
2017-03-17T00:55:13.965Z,7.61
2017-03-17T00:55:54.607Z,7.63
2017-03-17T00:56:35.272Z,7.72
2017-03-17T00:57:15.847Z,7.66
2017-03-17T00:57:56.495Z,7.7
2017-03-17T00:58:37.179Z,7.63
2017-03-17T00:59:17.985Z,7.7
2017-03-17T00:59:58.587Z,7.72
2017-03-17T01:00:39.209Z,7.7
2017-03-17T01:01:19.889Z,7.8
2017-03-17T01:02:00.500Z,7.79
2017-03-17T01:02:41.169Z,7.8
2017-03-17T01:03:21.788Z,7.76
2017-03-17T01:04:02.377Z,7.79
2017-03-17T01:04:43.026Z,7.79
2017-03-17T01:05:23.753Z,7.79
2017-03-17T01:06:04.334Z,7.87
2017-03-17T01:06:44.988Z,7.95
2017-03-17T01:07:25.615Z,7.87
2017-03-17T01:08:06.216Z,7.94
2017-03-17T01:08:46.830Z,7.91
2017-03-17T01:09:27.492Z,7.97
2017-03-17T01:10:08.205Z,7.93
2017-03-17T01:10:48.900Z,7.97
2017-03-17T01:11:29.552Z,7.97
2017-03-17T01:12:10.201Z,7.95
2017-03-17T01:12:50.884Z,7.94
2017-03-17T01:13:31.592Z,8.03
2017-03-17T01:14:12.219Z,7.94
2017-03-17T01:14:52.928Z,7.98
2017-03-17T01:15:33.594Z,7.98
2017-03-17T01:16:14.307Z,7.98
2017-03-17T01:16:54.917Z,8.01
2017-03-17T01:17:35.632Z,8.06
2017-03-17T01:18:16.277Z,8.12
2017-03-17T01:18:56.938Z,8.1
2017-03-17T01:19:37.618Z,8.15
2017-03-17T01:20:18.250Z,8.23
2017-03-17T01:20:58.903Z,8.13
2017-03-17T01:21:39.707Z,8.13
2017-03-17T01:22:20.299Z,8.31
2017-03-17T01:23:00.961Z,8.27
2017-03-17T01:23:41.606Z,8.3
2017-03-17T01:24:22.271Z,8.3
2017-03-17T01:25:02.916Z,8.38
2017-03-17T01:25:43.575Z,8.36
2017-03-17T01:26:24.235Z,8.41
2017-03-17T01:27:04.888Z,8.42
2017-03-17T01:27:46.134Z,8.46
2017-03-17T01:28:26.776Z,8.48
2017-03-17T01:29:07.346Z,8.56
2017-03-17T01:29:47.984Z,8.49
2017-03-17T01:30:28.694Z,8.66
2017-03-17T01:31:09.410Z,8.64
2017-03-17T01:31:49.955Z,8.66
2017-03-17T01:32:30.616Z,8.63
2017-03-17T01:33:11.297Z,8.64
2017-03-17T01:33:51.997Z,8.64
2017-03-17T01:34:32.596Z,8.64
2017-03-17T01:35:13.242Z,8.67
2017-03-17T01:35:53.901Z,8.64
2017-03-17T01:36:34.608Z,8.63
2017-03-17T01:37:15.254Z,8.58
2017-03-17T01:37:55.936Z,8.51
2017-03-17T01:38:36.621Z,8.51
2017-03-17T01:39:17.222Z,8.44
2017-03-17T01:39:57.795Z,8.38
2017-03-17T01:40:38.472Z,8.31
2017-03-17T01:41:19.129Z,8.31
2017-03-17T01:41:59.732Z,8.2
2017-03-17T01:42:40.302Z,8.26
2017-03-17T01:43:20.956Z,8.26
2017-03-17T01:44:01.586Z,8.28
2017-03-17T01:44:42.146Z,8.27
2017-03-17T01:45:22.815Z,8.27
2017-03-17T01:46:03.443Z,8.26
2017-03-17T01:46:44.029Z,8.2
2017-03-17T01:47:24.671Z,8.1
2017-03-17T01:48:05.353Z,8.13
2017-03-17T01:48:46.077Z,8.1
2017-03-17T01:49:26.731Z,8.13
2017-03-17T01:50:07.383Z,8.09
2017-03-17T01:50:48.035Z,8.1
2017-03-17T01:51:28.677Z,8.06
2017-03-17T01:52:09.341Z,8.01
2017-03-17T01:52:50.010Z,8.08
2017-03-17T01:53:30.642Z,7.94
2017-03-17T01:54:11.293Z,8.01
2017-03-17T01:54:51.952Z,8.01
2017-03-17T01:55:32.702Z,8
2017-03-17T01:56:13.367Z,8.09
2017-03-17T01:56:54.015Z,8.08
2017-03-17T01:57:34.652Z,8.09
2017-03-17T01:58:15.314Z,8.03
2017-03-17T01:58:55.970Z,8.03
2017-03-17T01:59:36.626Z,8.06
2017-03-17T02:00:17.300Z,8.12
2017-03-17T02:00:57.987Z,8.23
2017-03-17T02:01:38.684Z,8.27
2017-03-17T02:02:19.367Z,8.37
2017-03-17T02:02:59.990Z,8.38
2017-03-17T02:03:40.685Z,8.48
2017-03-17T02:04:21.298Z,8.48
2017-03-17T02:05:01.945Z,8.51
2017-03-17T02:05:42.632Z,8.66
2017-03-17T02:06:23.253Z,8.67
2017-03-17T02:07:03.954Z,8.66
2017-03-17T02:07:44.559Z,8.76
2017-03-17T02:08:25.260Z,8.88
2017-03-17T02:09:06.262Z,8.82
2017-03-17T02:09:46.929Z,8.91
2017-03-17T02:10:27.583Z,8.99
2017-03-17T02:11:08.242Z,8.97
2017-03-17T02:11:48.884Z,9
2017-03-17T02:12:29.541Z,9.06
2017-03-17T02:13:10.199Z,9.08
2017-03-17T02:13:50.832Z,9.14
2017-03-17T02:14:31.530Z,9.18
2017-03-17T02:15:12.147Z,9.18
2017-03-17T02:15:52.864Z,9.18
2017-03-17T02:16:33.546Z,9.21
2017-03-17T02:17:15.232Z,9.21
2017-03-17T02:17:55.925Z,9.21
2017-03-17T02:18:36.628Z,9.21
2017-03-17T02:19:17.202Z,9.26
2017-03-17T02:19:57.843Z,9.23
2017-03-17T02:20:38.544Z,9.29
2017-03-17T02:21:19.245Z,9.31
2017-03-17T02:21:59.816Z,9.34
2017-03-17T02:22:40.458Z,9.25
2017-03-17T02:23:21.159Z,9.23
2017-03-17T02:24:01.853Z,9.34
2017-03-17T02:24:42.417Z,9.29
2017-03-17T02:25:23.071Z,9.23
2017-03-17T02:26:03.761Z,9.23
2017-03-17T02:26:44.461Z,9.26
2017-03-17T02:27:25.042Z,9.21
2017-03-17T02:28:05.675Z,9.19
2017-03-17T02:28:46.377Z,9.16
2017-03-17T02:29:27.076Z,9.18
2017-03-17T02:30:07.647Z,9.19
2017-03-17T02:30:48.295Z,9.16
2017-03-17T02:31:28.995Z,9.13
2017-03-17T02:32:09.695Z,9.08
2017-03-17T02:32:50.344Z,9.06
2017-03-17T02:33:30.994Z,9.08
2017-03-17T02:34:11.655Z,9.02
2017-03-17T02:34:52.294Z,9.02
2017-03-17T02:35:32.948Z,9
2017-03-17T02:36:13.619Z,8.99
2017-03-17T02:36:54.259Z,9
2017-03-17T02:37:34.924Z,8.99
2017-03-17T02:38:15.577Z,9
2017-03-17T02:38:56.215Z,8.95
2017-03-17T02:39:36.878Z,8.95
2017-03-17T02:40:17.525Z,8.97
2017-03-17T02:40:58.171Z,9
2017-03-17T02:41:38.824Z,8.95
2017-03-17T02:42:19.483Z,8.92
2017-03-17T02:43:00.141Z,8.94
2017-03-17T02:43:40.795Z,8.91
2017-03-17T02:44:21.437Z,8.88
2017-03-17T02:45:02.307Z,8.94
2017-03-17T02:45:42.952Z,8.92
2017-03-17T02:46:24.634Z,8.81
2017-03-17T02:47:05.483Z,8.87
2017-03-17T02:47:46.136Z,8.85
2017-03-17T02:48:26.816Z,8.84
2017-03-17T02:49:07.451Z,8.79
2017-03-17T02:49:48.094Z,8.88
2017-03-17T02:50:29.773Z,8.87
2017-03-17T02:51:10.452Z,8.89
2017-03-17T02:51:51.078Z,8.84
2017-03-17T02:52:31.648Z,8.81
2017-03-17T02:53:12.306Z,8.92
2017-03-17T02:53:52.987Z,8.82
2017-03-17T02:54:33.688Z,8.85
2017-03-17T02:55:14.252Z,8.82
2017-03-17T02:55:54.915Z,8.88
2017-03-17T02:56:35.599Z,8.85
2017-03-17T02:57:16.301Z,8.91
2017-03-17T02:57:56.868Z,8.87
2017-03-17T02:58:37.526Z,8.89
2017-03-17T02:59:18.227Z,8.94
2017-03-17T02:59:58.911Z,8.92
2017-03-17T03:00:39.476Z,8.95
2017-03-17T03:01:20.148Z,8.95
2017-03-17T03:02:00.829Z,9
2017-03-17T03:02:41.524Z,8.99
2017-03-17T03:03:22.092Z,9.06
2017-03-17T03:04:02.750Z,9.11
2017-03-17T03:04:43.460Z,9.02
2017-03-17T03:05:24.134Z,9.08
2017-03-17T03:06:04.697Z,9
2017-03-17T03:06:46.383Z,9.03
2017-03-17T03:07:27.077Z,9.06
2017-03-17T03:08:07.660Z,9.02
2017-03-17T03:08:48.350Z,9.03
2017-03-17T03:09:28.986Z,9.1
2017-03-17T03:10:09.543Z,9.06
2017-03-17T03:10:50.199Z,9.11
2017-03-17T03:11:30.830Z,9.1
2017-03-17T03:12:11.420Z,9.08
2017-03-17T03:12:52.078Z,9.1
2017-03-17T03:13:32.703Z,9.11
2017-03-17T03:14:13.375Z,9.06
2017-03-17T03:14:54.029Z,9.06
2017-03-17T03:15:34.669Z,9.13
2017-03-17T03:16:15.325Z,9.11
2017-03-17T03:16:55.984Z,9.04
2017-03-17T03:17:36.638Z,9.13
2017-03-17T03:18:17.328Z,9.08
2017-03-17T03:18:58.036Z,9.1
2017-03-17T03:19:38.724Z,9.13
2017-03-17T03:20:19.456Z,9.1
2017-03-17T03:21:00.097Z,9.13
2017-03-17T03:21:40.799Z,9.06
2017-03-17T03:22:21.501Z,9.08
2017-03-17T03:23:02.194Z,9.06
2017-03-17T03:23:42.894Z,9
2017-03-17T03:24:23.474Z,9.1
2017-03-17T03:25:04.120Z,9.06
2017-03-17T03:25:44.816Z,9.11
2017-03-17T03:26:25.500Z,8.95
2017-03-17T03:27:06.092Z,9.03
2017-03-17T03:27:46.824Z,9.02
2017-03-17T03:28:27.529Z,9.04
2017-03-17T03:29:08.220Z,9.02
2017-03-17T03:29:48.807Z,9.06
2017-03-17T03:30:29.466Z,9.08
2017-03-17T03:31:10.142Z,9.06
2017-03-17T03:31:50.835Z,9.04
2017-03-17T03:32:31.423Z,9.04
2017-03-17T03:33:12.162Z,9.03
2017-03-17T03:33:52.810Z,9
2017-03-17T03:34:33.473Z,9.04
2017-03-17T03:35:14.137Z,8.99
2017-03-17T03:35:54.878Z,9.04
2017-03-17T03:36:35.524Z,9.03
2017-03-17T03:37:16.191Z,9.08
2017-03-17T03:37:56.934Z,9.04
2017-03-17T03:38:37.596Z,9.04
2017-03-17T03:39:18.230Z,9.04
2017-03-17T03:39:58.902Z,9.02
2017-03-17T03:40:39.543Z,9
2017-03-17T03:41:20.231Z,9.03
2017-03-17T03:42:00.977Z,9.03
2017-03-17T03:42:41.711Z,9.03
2017-03-17T03:43:22.358Z,8.92
2017-03-17T03:44:03.008Z,9.11
2017-03-17T03:44:43.669Z,8.97
2017-03-17T03:45:24.330Z,8.99
2017-03-17T03:46:05.079Z,9.02
2017-03-17T03:46:45.733Z,8.95
2017-03-17T06:02:36.686Z,8.56
2017-03-17T06:03:17.312Z,8.55
2017-03-17T06:03:58.018Z,8.61
2017-03-17T06:04:38.595Z,8.67
2017-03-17T06:05:19.162Z,8.67
2017-03-17T06:05:59.821Z,8.64
2017-03-17T06:06:40.416Z,8.61
2017-03-17T06:07:20.971Z,8.64
2017-03-17T06:08:01.635Z,8.66
2017-03-17T06:08:42.283Z,8.64
2017-03-17T06:09:22.944Z,8.64
2017-03-17T06:10:03.587Z,8.69
2017-03-17T06:10:44.254Z,8.78
2017-03-17T06:11:24.814Z,8.71
2017-03-17T06:12:05.460Z,8.74
2017-03-17T06:12:46.096Z,8.69
2017-03-17T06:13:26.663Z,8.71
2017-03-17T06:14:07.321Z,8.71
2017-03-17T06:14:49.192Z,8.76
2017-03-17T06:15:29.788Z,8.67
2017-03-17T06:16:10.399Z,8.67
2017-03-17T06:16:51.029Z,8.74
2017-03-17T06:17:31.709Z,8.78
2017-03-17T06:18:12.358Z,8.76
2017-03-17T06:18:54.956Z,8.78
2017-03-17T06:19:40.516Z,8.81
2017-03-17T06:20:23.168Z,8.74
2017-03-17T06:21:05.825Z,8.79
2017-03-17T06:21:46.478Z,8.88
2017-03-17T06:22:28.155Z,8.84
2017-03-17T06:23:14.530Z,8.81
2017-03-17T06:23:57.131Z,8.89
2017-03-17T06:24:37.794Z,8.84
2017-03-17T06:25:23.045Z,8.92
2017-03-17T06:26:03.722Z,8.79
2017-03-17T06:26:44.352Z,8.87
2017-03-17T06:27:24.999Z,8.84
2017-03-17T06:28:16.250Z,8.88
2017-03-17T06:28:56.990Z,8.88
2017-03-17T06:29:37.609Z,8.91
2017-03-17T06:30:19.335Z,8.92
2017-03-17T06:30:59.924Z,8.91
2017-03-17T06:31:40.497Z,8.92
2017-03-17T06:32:21.121Z,8.99
2017-03-17T06:33:01.784Z,8.87
2017-03-17T06:33:42.379Z,8.95
2017-03-17T06:34:24.034Z,8.91
2017-03-17T06:35:11.218Z,8.89
2017-03-17T06:35:51.786Z,8.97
2017-03-17T06:36:33.468Z,8.97
2017-03-17T06:37:24.737Z,9.02
2017-03-17T06:38:05.316Z,8.95
2017-03-17T06:38:46.005Z,8.95
2017-03-17T06:39:31.207Z,8.99
2017-03-17T06:40:11.783Z,9.06
2017-03-17T06:40:52.435Z,9.08
2017-03-17T06:41:33.046Z,9.08
2017-03-17T06:42:13.646Z,9.13
2017-03-17T06:42:54.284Z,9.08
2017-03-17T06:43:34.867Z,9.18
2017-03-17T06:44:15.499Z,9.13
2017-03-17T06:44:56.072Z,9.18
2017-03-17T06:45:36.691Z,9.18
2017-03-17T06:46:17.424Z,9.13
2017-03-17T06:46:58.001Z,9.1
2017-03-17T06:47:38.706Z,9.16
2017-03-17T06:48:19.441Z,9.08
2017-03-17T06:49:00.061Z,9.08
2017-03-17T06:49:40.713Z,9.06
2017-03-17T06:50:21.370Z,9.04
2017-03-17T06:51:01.953Z,9.03
2017-03-17T06:51:42.646Z,9.02
2017-03-17T06:52:23.300Z,9.1
2017-03-17T06:53:03.878Z,9.08
2017-03-17T06:53:44.541Z,8.99
2017-03-17T06:54:25.259Z,8.97
2017-03-17T06:55:05.839Z,9.06
2017-03-17T06:55:46.493Z,9.04
2017-03-17T06:56:27.068Z,9.03
2017-03-17T06:57:07.867Z,8.99
2017-03-17T06:57:48.421Z,9
2017-03-17T06:58:29.031Z,8.99
2017-03-17T06:59:10.696Z,8.99
2017-03-17T06:59:52.377Z,8.99
2017-03-17T07:00:33.035Z,9.06
2017-03-17T07:01:13.833Z,8.97
2017-03-17T07:01:54.545Z,9.02
2017-03-17T07:02:35.211Z,8.89
2017-03-17T07:03:16.868Z,8.89
2017-03-17T07:03:58.147Z,8.94
2017-03-17T07:04:38.713Z,8.91
2017-03-17T07:05:19.271Z,8.88
2017-03-17T07:05:59.855Z,8.81
2017-03-17T07:06:40.440Z,8.94
2017-03-17T07:07:21.014Z,8.87
2017-03-17T07:08:01.565Z,8.87
2017-03-17T07:08:42.121Z,8.88
2017-03-17T07:09:22.797Z,8.84
2017-03-17T07:10:03.377Z,8.88
2017-03-17T07:10:43.960Z,8.74
2017-03-17T07:11:24.563Z,8.82
2017-03-17T07:12:05.152Z,8.82
2017-03-17T07:12:46.732Z,8.78
2017-03-17T07:13:27.304Z,8.69
2017-03-17T07:14:07.891Z,8.78
2017-03-17T07:14:48.451Z,8.71
2017-03-17T07:15:29.040Z,8.76
2017-03-17T07:16:09.631Z,8.66
2017-03-17T07:16:51.208Z,8.69
2017-03-17T07:17:32.382Z,8.67
2017-03-17T07:18:12.960Z,8.6
2017-03-17T07:18:53.525Z,8.63
2017-03-17T07:19:35.117Z,8.48
2017-03-17T07:20:15.660Z,8.52
2017-03-17T07:20:56.224Z,8.55
2017-03-17T07:21:36.802Z,8.48
2017-03-17T07:22:17.351Z,8.51
2017-03-17T07:22:57.935Z,8.48
2017-03-17T07:23:38.557Z,8.46
2017-03-17T07:24:19.134Z,8.41
2017-03-17T07:24:59.725Z,8.51
2017-03-17T07:25:40.307Z,8.44
2017-03-17T07:26:20.861Z,8.42
2017-03-17T07:27:01.446Z,8.46
2017-03-17T07:27:42.023Z,8.41
2017-03-17T07:28:22.600Z,8.38
2017-03-17T07:29:03.190Z,8.44
2017-03-17T07:29:43.760Z,8.36
2017-03-17T07:30:24.335Z,8.41
2017-03-17T07:31:04.896Z,8.44
2017-03-17T07:31:45.493Z,8.34
2017-03-17T07:32:26.087Z,8.42
2017-03-17T07:33:07.684Z,8.37
2017-03-17T07:33:48.254Z,8.34
2017-03-17T07:34:28.823Z,8.3
2017-03-17T07:35:09.393Z,8.37
2017-03-17T07:35:50.971Z,8.31
2017-03-17T07:36:31.569Z,8.37
2017-03-17T07:37:13.174Z,8.24
2017-03-17T07:37:53.868Z,8.28
2017-03-17T07:38:34.488Z,8.23
2017-03-17T07:39:15.055Z,8.24
2017-03-17T07:39:56.663Z,8.28
2017-03-17T07:40:37.299Z,8.27
2017-03-17T07:41:17.897Z,8.28
2017-03-17T07:41:58.499Z,8.27
2017-03-17T07:42:39.049Z,8.26
2017-03-17T07:43:19.622Z,8.24
2017-03-17T07:44:01.217Z,8.31
2017-03-17T07:44:41.810Z,8.3
2017-03-17T07:45:22.374Z,8.28
2017-03-17T07:46:02.950Z,8.26
2017-03-17T07:46:43.530Z,8.23
2017-03-17T07:47:24.124Z,8.24
2017-03-17T07:48:04.753Z,8.26
2017-03-17T07:48:45.381Z,8.2
2017-03-17T07:49:25.958Z,8.27
2017-03-17T07:50:06.576Z,8.28
2017-03-17T07:50:47.159Z,8.27
2017-03-17T07:51:27.733Z,8.34
2017-03-17T07:52:08.312Z,8.41
2017-03-17T07:52:48.931Z,8.41
2017-03-17T07:53:29.499Z,8.48
2017-03-17T07:54:10.066Z,8.49
2017-03-17T07:54:51.487Z,8.52
2017-03-17T07:55:34.061Z,8.52
2017-03-17T07:56:16.661Z,8.53
2017-03-17T07:56:59.238Z,8.51
2017-03-17T07:57:39.823Z,8.63
2017-03-17T07:58:22.422Z,8.61
2017-03-17T07:59:03.007Z,8.63
2017-03-17T07:59:43.662Z,8.64
2017-03-17T08:00:24.239Z,8.67
2017-03-17T08:01:04.831Z,8.7
2017-03-17T08:01:45.389Z,8.64
2017-03-17T08:02:25.998Z,8.67
2017-03-17T08:03:06.575Z,8.69
2017-03-17T08:03:47.177Z,8.78
2017-03-17T08:04:27.797Z,8.66
2017-03-17T08:05:08.366Z,8.81
2017-03-17T08:05:48.929Z,8.74
2017-03-17T08:06:29.502Z,8.69
2017-03-17T08:07:11.096Z,8.69
2017-03-17T08:07:51.646Z,8.71
2017-03-17T08:08:32.200Z,8.74
2017-03-17T08:09:13.834Z,8.7
2017-03-17T08:09:54.450Z,8.82
2017-03-17T08:10:35.041Z,8.79
2017-03-17T08:11:15.623Z,8.82
2017-03-17T08:11:56.201Z,8.87
2017-03-17T08:12:36.791Z,8.95
2017-03-17T08:13:17.352Z,8.99
2017-03-17T08:13:57.912Z,9.04
2017-03-17T08:14:38.483Z,9.08
2017-03-17T08:15:19.062Z,9.03
2017-03-17T08:15:59.639Z,9.18
2017-03-17T08:16:40.192Z,9.26
2017-03-17T08:17:20.801Z,9.29
2017-03-17T08:18:01.381Z,9.28
2017-03-17T08:18:41.960Z,9.28
2017-03-17T08:19:22.534Z,9.29
2017-03-17T08:20:03.102Z,9.39
2017-03-17T08:20:43.655Z,9.41
2017-03-17T08:21:24.232Z,9.43
2017-03-17T08:22:04.807Z,9.4
2017-03-17T08:22:45.398Z,9.41
2017-03-17T08:23:25.965Z,9.43
2017-03-17T08:24:06.556Z,9.43
2017-03-17T08:24:47.134Z,9.37
2017-03-17T08:25:27.705Z,9.41
2017-03-17T08:26:08.289Z,9.43
2017-03-17T08:26:48.852Z,9.44
2017-03-17T08:27:29.413Z,9.39
2017-03-17T08:28:09.969Z,9.36
2017-03-17T08:28:50.534Z,9.25
2017-03-17T08:29:31.102Z,9.31
2017-03-17T08:30:11.678Z,9.32
2017-03-17T08:30:52.246Z,9.23
2017-03-17T08:31:32.816Z,9.23
2017-03-17T08:32:13.379Z,9.25
2017-03-17T08:32:53.929Z,9.31
2017-03-17T08:33:34.532Z,9.31
2017-03-17T08:34:15.111Z,9.23
2017-03-17T08:34:55.676Z,9.28
2017-03-17T08:35:36.247Z,9.23
2017-03-17T08:36:16.824Z,9.23
2017-03-17T08:36:57.412Z,9.22
2017-03-17T08:37:37.977Z,9.23
2017-03-17T08:38:18.551Z,9.28
2017-03-17T08:38:59.124Z,9.23
2017-03-17T08:39:39.693Z,9.31
2017-03-17T08:40:20.268Z,9.26
2017-03-17T08:41:00.844Z,9.29
2017-03-17T08:41:41.431Z,9.21
2017-03-17T08:42:22.008Z,9.26
2017-03-17T08:43:02.590Z,9.22
2017-03-17T08:43:43.174Z,9.21
2017-03-17T08:44:24.748Z,9.22
2017-03-17T08:45:06.316Z,9.31
2017-03-17T08:45:46.893Z,9.29
2017-03-17T08:46:27.468Z,9.25
2017-03-17T08:47:08.041Z,9.26
2017-03-17T08:47:48.623Z,9.32
2017-03-17T08:48:29.205Z,9.25
2017-03-17T08:49:09.812Z,9.28
2017-03-17T08:49:50.399Z,9.22
2017-03-17T08:50:30.977Z,9.22
2017-03-17T08:51:11.589Z,9.25
2017-03-17T08:51:52.160Z,9.26
2017-03-17T08:52:32.732Z,9.28
2017-03-17T08:53:13.322Z,9.34
2017-03-17T08:53:53.893Z,9.39
2017-03-17T08:54:34.462Z,9.4
2017-03-17T08:55:15.041Z,9.59
2017-03-17T08:55:55.610Z,9.59
2017-03-17T08:56:36.168Z,9.5
2017-03-17T08:57:16.793Z,9.55
2017-03-17T08:57:57.362Z,9.54
2017-03-17T08:58:37.934Z,9.68
2017-03-17T08:59:18.510Z,9.69
2017-03-17T08:59:59.087Z,9.8
2017-03-17T09:00:39.672Z,9.86
2017-03-17T09:01:20.247Z,9.97
2017-03-17T09:02:00.825Z,10.1
2017-03-17T09:02:41.403Z,10.2
2017-03-17T09:03:22.009Z,10.3
2017-03-17T09:04:02.552Z,10.22
2017-03-17T09:04:43.123Z,10.35
2017-03-17T09:05:23.744Z,10.35
2017-03-17T09:06:04.490Z,10.37
2017-03-17T09:06:45.125Z,10.41
2017-03-17T09:07:25.780Z,10.41
2017-03-17T09:08:06.435Z,10.37
2017-03-17T09:09:02.693Z,10.3
2017-03-17T09:09:43.301Z,10.31
2017-03-17T10:24:07.037Z,11.08
2017-03-17T10:24:47.592Z,11.04
2017-03-17T10:25:29.308Z,10.99
2017-03-17T10:26:09.955Z,11.17
2017-03-17T10:26:55.348Z,11.19
2017-03-17T10:27:38.016Z,11.22
2017-03-17T10:28:18.634Z,11.33
2017-03-17T10:40:40.196Z,11.43
2017-03-17T10:41:27.893Z,11.4
2017-03-17T10:42:23.281Z,11.44
2017-03-17T10:43:03.932Z,11.43
2017-03-17T10:43:49.293Z,11.4
2017-03-17T10:46:03.376Z,11.32
2017-03-17T10:46:56.692Z,11.19
2017-03-17T10:47:49.235Z,11.25
2017-03-17T10:51:35.642Z,11.19
2017-03-17T10:52:27.873Z,11.23
2017-03-17T10:53:08.499Z,11.22
2017-03-17T10:53:49.060Z,11.19
2017-03-17T10:55:54.874Z,11
2017-03-17T10:56:36.503Z,11.07
2017-03-17T10:57:17.128Z,11.1
2017-03-17T10:57:57.695Z,11.08
2017-03-17T10:58:39.268Z,11.19
2017-03-17T10:59:20.884Z,11.3
2017-03-17T11:00:03.529Z,11.19
2017-03-17T11:00:44.097Z,11.19
2017-03-17T11:01:29.272Z,11.4
2017-03-17T11:02:14.551Z,11.26
2017-03-17T11:31:27.178Z,10.86
2017-03-17T11:32:08.796Z,10.81
2017-03-17T11:33:04.223Z,10.9
2017-03-17T11:33:45.842Z,10.94
2017-03-17T11:34:26.409Z,10.93
2017-03-17T11:35:09.026Z,10.87
2017-03-17T11:35:49.691Z,10.93
2017-03-17T11:36:30.289Z,10.92
2017-03-17T11:37:10.869Z,10.92
2017-03-17T11:37:51.522Z,10.87
2017-03-17T11:38:34.152Z,10.76
2017-03-17T11:39:14.750Z,10.86
2017-03-17T11:39:55.316Z,10.79
2017-03-17T11:40:35.977Z,10.89
2017-03-17T11:41:21.271Z,10.81
2017-03-17T11:42:02.894Z,10.82
2017-03-17T11:42:43.476Z,10.92
2017-03-17T11:51:30.055Z,10.72
2017-03-17T11:52:12.700Z,10.68
2017-03-17T11:52:54.277Z,10.74
2017-03-17T11:53:34.932Z,10.63
2017-03-17T11:54:17.565Z,10.79
2017-03-17T11:54:58.163Z,10.87
2017-03-17T11:55:38.738Z,10.94
2017-03-17T11:56:24.203Z,10.96
2017-03-17T11:57:04.892Z,11.05
2017-03-17T11:57:45.649Z,11.17
2017-03-17T11:58:26.230Z,11.25
2017-03-17T11:59:06.921Z,11.35
2017-03-17T11:59:58.399Z,11.33
2017-03-17T12:00:38.971Z,11.43
2017-03-17T12:01:24.482Z,11.37
2017-03-17T12:02:05.053Z,11.41
2017-03-17T12:02:45.773Z,11.37
2017-03-17T12:03:27.405Z,11.5
2017-03-17T12:04:13.888Z,11.48
2017-03-17T12:04:54.542Z,11.55
2017-03-17T12:05:35.199Z,11.52
2017-03-17T12:06:26.396Z,11.62
2017-03-17T12:07:07.063Z,11.59
2017-03-17T12:07:47.715Z,11.65
2017-03-17T12:08:30.399Z,11.55
2017-03-17T12:09:10.981Z,11.54
2017-03-17T12:13:57.413Z,11.8
2017-03-17T12:14:38.025Z,11.78
2017-03-17T12:15:18.654Z,11.86
2017-03-17T12:15:59.227Z,11.83
2017-03-17T12:16:39.879Z,11.81
2017-03-17T12:17:20.456Z,11.8
2017-03-17T12:18:01.019Z,11.75
2017-03-17T12:18:41.729Z,11.62
2017-03-17T12:19:22.366Z,11.66
2017-03-17T12:20:02.964Z,11.62
2017-03-17T12:20:43.584Z,11.62
2017-03-17T12:21:24.221Z,11.65
2017-03-17T12:22:04.789Z,11.68
2017-03-17T12:22:45.451Z,11.7
2017-03-17T12:23:26.078Z,11.69
2017-03-17T12:24:06.650Z,11.7
2017-03-17T12:24:47.303Z,11.78
2017-03-17T12:25:28.035Z,11.83
2017-03-17T12:26:08.671Z,11.84
2017-03-17T12:26:49.557Z,11.77
2017-03-17T12:27:30.301Z,11.69
2017-03-17T12:28:10.892Z,11.72
2017-03-17T12:28:51.509Z,11.72
2017-03-17T12:29:32.210Z,11.81
2017-03-17T12:30:12.917Z,11.72
2017-03-17T12:30:53.478Z,11.72
2017-03-17T12:31:34.133Z,11.62
2017-03-17T12:32:14.776Z,11.66
2017-03-17T12:32:55.355Z,11.59
2017-03-17T12:33:35.994Z,11.68
2017-03-17T12:34:16.687Z,11.51
2017-03-17T12:34:57.380Z,11.55
2017-03-17T12:35:37.963Z,11.62
2017-03-17T12:36:19.646Z,11.65
2017-03-17T12:37:00.322Z,11.52
2017-03-17T12:37:41.017Z,11.62
2017-03-17T12:38:21.598Z,11.5
2017-03-17T12:39:02.353Z,11.54
2017-03-17T12:39:43.006Z,11.5
2017-03-17T12:40:23.673Z,11.44
2017-03-17T12:41:04.306Z,11.43
2017-03-17T12:41:44.997Z,11.35
2017-03-17T12:42:25.719Z,11.43
2017-03-17T12:43:06.381Z,11.41
2017-03-17T12:43:47.026Z,11.52
2017-03-17T12:44:27.724Z,11.47
2017-03-17T12:45:08.301Z,11.47
2017-03-17T12:45:48.897Z,11.5
2017-03-17T12:46:29.544Z,11.59
2017-03-17T12:47:10.214Z,11.6
2017-03-17T12:47:50.918Z,11.63
2017-03-17T12:48:31.512Z,11.7
2017-03-17T12:49:12.154Z,11.6
2017-03-17T12:49:52.828Z,11.62
2017-03-17T12:50:33.530Z,11.45
2017-03-17T12:51:14.105Z,11.5
2017-03-17T12:51:54.757Z,11.41
2017-03-17T12:52:35.438Z,11.43
2017-03-17T12:53:16.137Z,11.44
2017-03-17T12:53:56.703Z,11.41
2017-03-17T12:54:37.363Z,11.45
2017-03-17T12:55:18.177Z,11.37
2017-03-17T12:56:00.044Z,11.43
2017-03-17T12:56:41.778Z,11.44
2017-03-17T12:57:22.451Z,11.45
2017-03-17T12:58:03.091Z,11.35
2017-03-17T12:58:43.751Z,11.44
2017-03-17T12:59:24.381Z,11.45
2017-03-17T13:00:05.081Z,11.37
2017-03-17T13:00:45.808Z,11.41
2017-03-17T13:01:26.757Z,11.48
2017-03-17T13:02:07.439Z,11.5
2017-03-17T13:02:48.074Z,11.44
2017-03-17T13:03:28.734Z,11.54
2017-03-17T13:04:09.392Z,11.63
2017-03-17T13:04:50.016Z,11.69
2017-03-17T13:05:30.682Z,11.66
2017-03-17T13:06:11.328Z,11.73
2017-03-17T13:06:52.004Z,11.81
2017-03-17T13:07:32.672Z,11.81
2017-03-17T13:08:13.294Z,11.8
2017-03-17T13:08:53.956Z,11.83
2017-03-17T13:09:34.525Z,11.84
2017-03-17T13:10:15.129Z,11.88
2017-03-17T13:10:55.702Z,11.99
2017-03-17T13:11:36.362Z,11.95
2017-03-17T13:12:16.949Z,11.97
2017-03-17T13:12:57.537Z,11.91
2017-03-17T13:13:38.117Z,11.9
2017-03-17T13:14:18.763Z,11.94
2017-03-17T13:14:59.424Z,12.06
2017-03-17T13:15:41.100Z,11.99
2017-03-17T13:16:21.762Z,11.91
2017-03-17T13:17:02.329Z,11.91
2017-03-17T13:17:42.949Z,11.95
2017-03-17T13:18:23.612Z,12
2017-03-17T13:19:04.264Z,11.99
2017-03-17T13:19:44.891Z,11.81
2017-03-17T13:20:25.448Z,11.84
2017-03-17T13:21:06.088Z,11.87
2017-03-17T13:21:46.733Z,11.87
2017-03-17T13:22:27.393Z,11.84
2017-03-17T13:23:08.047Z,11.78
2017-03-17T13:23:48.619Z,11.8
2017-03-17T13:24:29.286Z,11.7
2017-03-17T13:25:09.901Z,11.68
2017-03-17T13:25:50.485Z,11.62
2017-03-17T13:26:31.136Z,11.6
2017-03-17T13:27:12.740Z,11.68
2017-03-17T13:27:53.438Z,11.7
2017-03-17T13:28:34.003Z,11.86
2017-03-17T13:29:14.655Z,11.8
2017-03-17T13:29:55.249Z,11.97
2017-03-17T13:30:35.839Z,11.97